Challenge Prelude — VRQC9 — position and weather

sailwx.info

Track history (hours):
 
Tides and Currents Weather Stations Pressure Air Temp Water Temp Dewpoint Dewpoint Depression Visibility Wind Speed Wind Dir Waves Ship Positions

Challenge Prelude

Last reported at 2018-Jan-22 23:04 UTC. Time now 2018-Feb-24 21:45 UTC.
Position N 48°30' W 124°43'.
Warning: this ship's position is 32 days out of date.

Length 179 m; draft 8.3 m.

Type: Tanker. MMSI: 477858900.

Date/timePositionNaut miles runAvg speedWind from/ knotsBaromVisibWave heightAir tempDewpointWater temp
2018-Jan-22 23:04N 48°30' W 124°43'110.5
2018-Jan-22 22:58N 48°30' W 124°41'510.6
2018-Jan-22 22:29N 48°28' W 124°34'712.0
2018-Jan-22 21:55N 48°25' W 124°25'4611.4
2018-Jan-22 17:53N 48°24' W 123°15'2810.0
2018-Jan-22 15:05N 48°51' W 123°03'112.9
2018-Jan-22 15:00N 48°51' W 123°05'1512.7
2018-Jan-22 13:48N 49°02' W 123°22'1312.3
2018-Jan-22 12:42N 49°15' W 123°21'312.9
2018-Jan-22 12:30N 49°18' W 123°19'611.3
2018-Jan-22 12:00N 49°19' W 123°11'3 6.7
2018-Jan-22 11:30N 49°18' W 123°06'4 6.6
2018-Jan-22 10:54N 49°18' W 122°60'1 2.4
2018-Jan-22 10:29N 49°18' W 122°58'2 4.3
2018-Jan-22 09:58N 49°18' W 122°55'1 0.0
2018-Jan-21 15:12N 49°17' W 122°54'0 0.6
2018-Jan-21 15:00N 49°17' W 122°54'4 0.2
2018-Jan-20 16:38N 49°18' W 122°59'2 6.3
2018-Jan-20 16:17N 49°18' W 123°03'1 2.1
2018-Jan-20 15:51N 49°18' W 123°04'0 1.5
2018-Jan-20 15:31N 49°18' W 123°05'2 3.1
2018-Jan-20 15:00N 49°18' W 123°07'4 7.5
2018-Jan-20 14:30N 49°19' W 123°13'3 6.9
2018-Jan-20 14:00N 49°17' W 123°18'52 9.8
2018-Jan-20 08:40N 48°25' W 123°10'212.9
2018-Jan-20 08:30N 48°24' W 123°13'711.7
2018-Jan-20 07:52N 48°21' W 123°23'36 5.9
2018-Jan-20 01:49N 48°21' W 124°17'4 7.6
2018-Jan-20 01:20N 48°22' W 124°22'3 9.6
2018-Jan-20 01:00N 48°23' W 124°26'4 8.2
2018-Jan-20 00:30N 48°25' W 124°32'5 9.1
2018-Jan-20 00:00N 48°27' W 124°38'5 9.3
2018-Jan-19 23:30N 48°29' W 124°45'29410.3
2018-Jan-18 19:00N 48°12' W 132°06'27110.8 230 / 6986.0 5.4 11.0 11.0
2018-Jan-17 18:00N 49°24' W 138°42'   090 / 24971.0 5.4 11.0 11.0
2018-Jan-14 18:00N 58°12' W 143°54'   090 / 19995.0 5.4 9.0 7.1 7.0
Track history (hours):
 
Tides and Currents Weather Stations Pressure Air Temp Water Temp Dewpoint Dewpoint Depression Visibility Wind Speed Wind Dir Waves Ship Positions

Challenge Prelude

Last reported at 2018-Jan-22 23:04 UTC. Time now 2018-Feb-24 21:45 UTC.
Position N 48°30' W 124°43'.
Warning: this ship's position is 32 days out of date.

Length 179 m; draft 8.3 m.

Type: Tanker. MMSI: 477858900.

Date/timePositionNaut miles runAvg speedWind from/ knotsBaromVisibWave heightAir tempDewpointWater temp
2018-Jan-22 23:04N 48°30' W 124°43'110.5
2018-Jan-22 22:58N 48°30' W 124°41'510.6
2018-Jan-22 22:29N 48°28' W 124°34'712.0
2018-Jan-22 21:55N 48°25' W 124°25'4611.4
2018-Jan-22 17:53N 48°24' W 123°15'2810.0
2018-Jan-22 15:05N 48°51' W 123°03'112.9
2018-Jan-22 15:00N 48°51' W 123°05'1512.7
2018-Jan-22 13:48N 49°02' W 123°22'1312.3
2018-Jan-22 12:42N 49°15' W 123°21'312.9
2018-Jan-22 12:30N 49°18' W 123°19'611.3
2018-Jan-22 12:00N 49°19' W 123°11'3 6.7
2018-Jan-22 11:30N 49°18' W 123°06'4 6.6
2018-Jan-22 10:54N 49°18' W 122°60'1 2.4
2018-Jan-22 10:29N 49°18' W 122°58'2 4.3
2018-Jan-22 09:58N 49°18' W 122°55'1 0.0
2018-Jan-21 15:12N 49°17' W 122°54'0 0.6
2018-Jan-21 15:00N 49°17' W 122°54'4 0.2
2018-Jan-20 16:38N 49°18' W 122°59'2 6.3
2018-Jan-20 16:17N 49°18' W 123°03'1 2.1
2018-Jan-20 15:51N 49°18' W 123°04'0 1.5
2018-Jan-20 15:31N 49°18' W 123°05'2 3.1
2018-Jan-20 15:00N 49°18' W 123°07'4 7.5
2018-Jan-20 14:30N 49°19' W 123°13'3 6.9
2018-Jan-20 14:00N 49°17' W 123°18'52 9.8
2018-Jan-20 08:40N 48°25' W 123°10'212.9
2018-Jan-20 08:30N 48°24' W 123°13'711.7
2018-Jan-20 07:52N 48°21' W 123°23'36 5.9
2018-Jan-20 01:49N 48°21' W 124°17'4 7.6
2018-Jan-20 01:20N 48°22' W 124°22'3 9.6
2018-Jan-20 01:00N 48°23' W 124°26'4 8.2
2018-Jan-20 00:30N 48°25' W 124°32'5 9.1
2018-Jan-20 00:00N 48°27' W 124°38'5 9.3
2018-Jan-19 23:30N 48°29' W 124°45'29410.3
2018-Jan-18 19:00N 48°12' W 132°06'27110.8 230 / 6986.0 5.4 11.0 11.0
2018-Jan-17 18:00N 49°24' W 138°42'   090 / 24971.0 5.4 11.0 11.0
2018-Jan-14 18:00N 58°12' W 143°54'   090 / 19995.0 5.4 9.0 7.1 7.0

Dump ship's entire track history